createdAt,value
2017-03-26T00:00:36.456Z,7.35
2017-03-26T00:01:38.807Z,7.27
2017-03-26T00:02:40.231Z,7.40
2017-03-26T00:03:42.499Z,7.38
2017-03-26T00:04:44.584Z,7.23
2017-03-26T00:05:46.598Z,7.29
2017-03-26T00:06:48.587Z,7.22
2017-03-26T00:07:50.584Z,7.23
2017-03-26T00:08:52.981Z,7.29
2017-03-26T00:09:55.247Z,7.24
2017-03-26T00:10:56.665Z,7.29
2017-03-26T00:11:58.659Z,7.32
2017-03-26T00:13:00.630Z,7.31
2017-03-26T00:14:02.603Z,7.26
2017-03-26T00:15:04.563Z,7.16
2017-03-26T00:16:06.524Z,7.26
2017-03-26T00:17:07.359Z,7.32
2017-03-26T00:18:09.493Z,7.29
2017-03-26T00:19:10.874Z,7.20
2017-03-26T00:20:13.236Z,7.26
2017-03-26T00:21:14.664Z,7.26
2017-03-26T00:22:17.027Z,7.20
2017-03-26T00:23:17.444Z,7.16
2017-03-26T00:24:18.867Z,7.08
2017-03-26T00:25:20.951Z,7.22
2017-03-26T00:26:23.221Z,7.19
2017-03-26T00:27:25.224Z,7.19
2017-03-26T00:28:27.232Z,7.17
2017-03-26T00:29:29.207Z,7.20
2017-03-26T00:30:31.186Z,7.08
2017-03-26T00:31:33.155Z,7.05
2017-03-26T00:32:35.563Z,7.07
2017-03-26T00:33:36.979Z,7.07
2017-03-26T00:34:38.396Z,7.13
2017-03-26T00:35:39.814Z,7.07
2017-03-26T00:36:41.244Z,7.08
2017-03-26T00:37:43.244Z,7.08
2017-03-26T00:38:44.711Z,7.08
2017-03-26T00:39:47.127Z,7.02
2017-03-26T00:40:49.089Z,6.90
2017-03-26T00:41:51.465Z,7.07
2017-03-26T00:42:53.702Z,7.08
2017-03-26T00:43:55.975Z,7.08
2017-03-26T00:44:57.396Z,7.05
2017-03-26T00:45:59.284Z,7.07
2017-03-26T00:47:01.246Z,7.02
2017-03-26T00:48:03.653Z,7.09
2017-03-26T00:49:05.075Z,6.98
2017-03-26T00:50:07.169Z,7.01
2017-03-26T00:51:09.285Z,7.02
2017-03-26T00:52:11.445Z,7.02
2017-03-26T00:53:12.858Z,7.05
2017-03-26T00:54:15.189Z,7.04
2017-03-26T00:55:16.606Z,7.04
2017-03-26T00:56:18.788Z,7.05
2017-03-26T00:57:20.990Z,7.04
2017-03-26T00:58:22.437Z,6.98
2017-03-26T00:59:24.739Z,7.01
2017-03-26T01:00:26.990Z,6.91
2017-03-26T01:01:28.414Z,6.94
2017-03-26T01:02:30.708Z,7.02
2017-03-26T01:03:32.991Z,6.94
2017-03-26T01:04:34.412Z,6.94
2017-03-26T01:05:36.449Z,7.01
2017-03-26T01:06:38.335Z,6.79
2017-03-26T01:07:40.757Z,6.90
2017-03-26T01:08:42.176Z,6.94
2017-03-26T01:09:44.585Z,6.76
2017-03-26T01:10:46.807Z,6.72
2017-03-26T01:11:49.119Z,6.66
2017-03-26T01:12:50.540Z,6.56
2017-03-26T01:13:52.849Z,6.61
2017-03-26T01:14:54.266Z,6.53
2017-03-26T01:15:56.349Z,6.63
2017-03-26T01:16:58.395Z,6.63
2017-03-26T01:18:00.546Z,6.61
2017-03-26T01:19:01.970Z,6.51
2017-03-26T01:20:04.202Z,6.66
2017-03-26T01:21:06.507Z,6.72
2017-03-26T01:22:07.926Z,6.62
2017-03-26T01:23:09.880Z,6.61
2017-03-26T01:24:11.840Z,6.65
2017-03-26T01:25:13.828Z,6.69
2017-03-26T01:26:16.166Z,6.65
2017-03-26T01:27:17.583Z,6.59
2017-03-26T01:28:19.009Z,6.54
2017-03-26T01:29:20.425Z,6.28
2017-03-26T01:30:21.839Z,6.29
2017-03-26T01:31:23.255Z,6.26
2017-03-26T01:32:24.671Z,6.06
2017-03-26T01:33:26.083Z,5.92
2017-03-26T01:34:27.496Z,5.86
2017-03-26T01:35:28.915Z,5.89
2017-03-26T01:36:30.329Z,5.98
2017-03-26T01:37:31.743Z,5.96
2017-03-26T01:38:33.170Z,6.04
2017-03-26T01:39:34.596Z,6.26
2017-03-26T01:40:36.020Z,6.28
2017-03-26T01:41:37.437Z,6.33
2017-03-26T01:42:38.854Z,6.26
2017-03-26T01:43:40.275Z,6.32
2017-03-26T01:44:41.695Z,6.35
2017-03-26T01:45:43.115Z,6.22
2017-03-26T01:46:44.535Z,6.32
2017-03-26T01:47:45.951Z,6.35
2017-03-26T01:48:47.359Z,6.33
2017-03-26T01:49:48.779Z,6.26
2017-03-26T01:50:50.195Z,6.36
2017-03-26T01:51:51.613Z,6.33
2017-03-26T01:52:53.086Z,6.35
2017-03-26T01:53:54.500Z,6.35
2017-03-26T01:54:55.929Z,6.38
2017-03-26T01:55:57.346Z,6.35
2017-03-26T01:56:58.768Z,6.38
2017-03-26T01:58:00.180Z,6.32
2017-03-26T01:59:01.599Z,6.35
2017-03-26T02:00:03.018Z,6.22
2017-03-26T02:01:04.438Z,6.30
2017-03-26T02:02:05.854Z,6.33
2017-03-26T02:03:07.275Z,6.38
2017-03-26T02:04:08.685Z,6.36
2017-03-26T02:05:10.102Z,6.40
2017-03-26T02:06:11.528Z,6.38
2017-03-26T02:07:12.944Z,6.38
2017-03-26T02:08:14.361Z,6.38
2017-03-26T02:09:15.778Z,6.41
2017-03-26T02:10:17.194Z,6.30
2017-03-26T02:11:18.611Z,6.30
2017-03-26T02:12:20.034Z,6.46
2017-03-26T02:13:21.450Z,6.35
2017-03-26T02:14:22.867Z,6.41
2017-03-26T02:15:24.283Z,6.41
2017-03-26T02:16:25.706Z,6.36
2017-03-26T02:17:27.130Z,6.40
2017-03-26T02:18:28.550Z,6.33
2017-03-26T02:19:29.967Z,6.33
2017-03-26T02:20:31.393Z,6.33
2017-03-26T02:21:32.808Z,6.33
2017-03-26T02:22:34.221Z,6.26
2017-03-26T02:23:35.638Z,6.32
2017-03-26T02:24:37.060Z,6.29
2017-03-26T02:25:38.475Z,6.38
2017-03-26T02:26:39.889Z,6.28
2017-03-26T02:27:41.303Z,6.32
2017-03-26T02:28:42.718Z,6.22
2017-03-26T02:29:44.137Z,6.29
2017-03-26T02:30:45.553Z,6.29
2017-03-26T02:31:46.970Z,6.19
2017-03-26T02:32:48.385Z,6.28
2017-03-26T02:33:49.799Z,6.07
2017-03-26T02:34:51.266Z,6.19
2017-03-26T02:35:52.686Z,6.06
2017-03-26T02:36:54.102Z,6.14
2017-03-26T02:37:55.520Z,6.26
2017-03-26T02:38:56.951Z,6.29
2017-03-26T02:39:58.367Z,6.16
2017-03-26T02:41:00.619Z,6.07
2017-03-26T02:42:02.046Z,6.14
2017-03-26T02:43:03.464Z,6.13
2017-03-26T02:44:04.894Z,6.11
2017-03-26T02:45:06.308Z,6.09
2017-03-26T02:46:07.727Z,6.04
2017-03-26T02:47:09.145Z,5.92
2017-03-26T02:48:10.569Z,5.92
2017-03-26T02:49:11.991Z,5.95
2017-03-26T02:50:13.402Z,6.07
2017-03-26T02:51:14.819Z,6.03
2017-03-26T02:52:16.238Z,6.03
2017-03-26T02:53:17.657Z,6.01
2017-03-26T02:54:19.076Z,6.04
2017-03-26T02:55:20.494Z,5.96
2017-03-26T02:56:21.909Z,6.03
2017-03-26T02:57:23.323Z,5.93
2017-03-26T02:58:24.742Z,6.04
2017-03-26T02:59:26.154Z,6.00
2017-03-26T03:00:27.583Z,5.96
2017-03-26T03:01:29.005Z,5.98
2017-03-26T03:02:32.519Z,5.96
2017-03-26T03:03:33.934Z,6.03
2017-03-26T03:04:35.356Z,6.01
2017-03-26T03:05:36.769Z,5.98
2017-03-26T03:06:38.181Z,6.01
2017-03-26T03:07:39.599Z,5.92
2017-03-26T03:08:41.017Z,5.98
2017-03-26T03:09:42.431Z,5.91
2017-03-26T03:10:43.847Z,5.96
2017-03-26T03:11:45.264Z,5.85
2017-03-26T03:12:46.682Z,5.92
2017-03-26T03:13:48.101Z,5.95
2017-03-26T03:14:49.524Z,5.96
2017-03-26T03:15:51.016Z,5.93
2017-03-26T03:16:52.472Z,5.89
2017-03-26T03:17:53.893Z,6.04
2017-03-26T03:18:55.310Z,6.01
2017-03-26T03:19:56.726Z,5.96
2017-03-26T03:20:58.147Z,5.95
2017-03-26T03:21:59.564Z,5.82
2017-03-26T03:23:00.988Z,5.78
2017-03-26T03:24:02.398Z,5.86
2017-03-26T03:25:03.814Z,5.78
2017-03-26T03:26:05.219Z,5.75
2017-03-26T03:27:06.636Z,5.82
2017-03-26T03:28:08.052Z,5.91
2017-03-26T03:29:09.472Z,5.83
2017-03-26T03:30:10.893Z,5.66
2017-03-26T03:31:12.305Z,5.66
2017-03-26T03:32:13.723Z,5.82
2017-03-26T03:33:15.151Z,5.75
2017-03-26T03:34:16.565Z,5.68
2017-03-26T03:35:17.985Z,5.53
2017-03-26T03:36:19.400Z,5.59
2017-03-26T03:37:20.814Z,5.57
2017-03-26T03:38:22.233Z,5.64
2017-03-26T03:39:23.650Z,5.57
2017-03-26T03:40:25.064Z,5.52
2017-03-26T03:41:26.481Z,5.57
2017-03-26T03:42:27.899Z,5.63
2017-03-26T03:43:29.312Z,5.56
2017-03-26T03:44:30.729Z,5.56
2017-03-26T03:45:32.150Z,5.57
2017-03-26T03:46:33.571Z,5.63
2017-03-26T03:47:34.991Z,5.63
2017-03-26T03:48:36.405Z,5.57
2017-03-26T03:49:37.862Z,5.59
2017-03-26T03:50:39.235Z,5.41
2017-03-26T03:51:40.649Z,5.57
2017-03-26T03:52:42.064Z,5.56
2017-03-26T03:53:43.477Z,5.70
2017-03-26T03:54:44.915Z,5.60
2017-03-26T03:55:46.330Z,5.66
2017-03-26T03:56:47.748Z,5.64
2017-03-26T03:57:49.169Z,5.74
2017-03-26T03:58:50.588Z,5.67
2017-03-26T03:59:52.006Z,5.85
2017-03-26T04:00:53.422Z,5.83
2017-03-26T04:01:54.840Z,5.74
2017-03-26T04:02:56.267Z,5.71
2017-03-26T04:03:57.681Z,5.75
2017-03-26T04:04:59.098Z,5.81
2017-03-26T04:06:00.512Z,5.81
2017-03-26T04:07:01.925Z,5.88
2017-03-26T04:08:03.343Z,5.91
2017-03-26T04:09:04.759Z,5.89
2017-03-26T04:10:06.175Z,5.89
2017-03-26T04:11:07.591Z,5.83
2017-03-26T04:12:09.021Z,5.89
2017-03-26T04:13:10.435Z,5.73
2017-03-26T04:14:11.859Z,5.89
2017-03-26T04:15:13.283Z,5.85
2017-03-26T04:16:14.694Z,5.83
2017-03-26T04:17:16.107Z,5.86
2017-03-26T04:18:17.522Z,5.89
2017-03-26T04:19:18.935Z,5.81
2017-03-26T04:20:20.349Z,5.88
2017-03-26T04:21:21.764Z,5.81
2017-03-26T04:22:23.222Z,5.95
2017-03-26T04:23:24.594Z,6.00
2017-03-26T04:24:26.013Z,5.93
2017-03-26T04:25:27.431Z,5.92
2017-03-26T04:26:28.844Z,5.81
2017-03-26T04:27:30.261Z,5.82
2017-03-26T04:28:31.678Z,5.98
2017-03-26T04:29:33.103Z,5.86
2017-03-26T04:30:34.518Z,5.89
2017-03-26T04:31:35.934Z,5.92
2017-03-26T04:32:37.350Z,5.89
2017-03-26T04:33:38.789Z,5.96
2017-03-26T04:34:40.202Z,5.89
2017-03-26T04:35:41.615Z,6.06
2017-03-26T04:36:43.038Z,5.95
2017-03-26T04:37:44.458Z,5.98
2017-03-26T04:38:45.871Z,6.00
2017-03-26T04:39:47.303Z,6.00
2017-03-26T04:40:48.721Z,5.98
2017-03-26T04:41:50.146Z,5.96
2017-03-26T04:42:51.574Z,6.06
2017-03-26T04:43:52.995Z,6.04
2017-03-26T04:44:54.412Z,5.93
2017-03-26T04:45:55.836Z,6.01
2017-03-26T04:46:57.250Z,5.89
2017-03-26T04:47:58.665Z,6.04
2017-03-26T04:49:00.087Z,6.03
2017-03-26T04:50:01.497Z,6.00
2017-03-26T04:51:02.910Z,6.00
2017-03-26T04:52:04.331Z,6.04
2017-03-26T04:53:05.747Z,6.06
2017-03-26T04:54:07.164Z,6.10
2017-03-26T04:55:08.582Z,6.13
2017-03-26T04:56:09.998Z,6.04
2017-03-26T04:57:11.413Z,5.98
2017-03-26T04:58:12.833Z,5.82
2017-03-26T04:59:14.246Z,5.88
2017-03-26T05:00:15.671Z,5.92
2017-03-26T05:01:17.111Z,6.06
2017-03-26T05:02:18.499Z,6.04
2017-03-26T05:03:19.918Z,6.00
2017-03-26T05:04:21.332Z,6.09
2017-03-26T05:05:22.750Z,6.06
2017-03-26T05:06:24.169Z,6.19
2017-03-26T05:07:25.581Z,6.13
2017-03-26T05:08:27.002Z,6.07
2017-03-26T05:09:28.415Z,6.03
2017-03-26T05:10:29.841Z,6.10
2017-03-26T05:11:31.263Z,6.09
2017-03-26T05:12:32.682Z,6.07
2017-03-26T05:13:34.101Z,6.09
2017-03-26T05:14:35.520Z,6.22
2017-03-26T05:15:36.942Z,6.19
2017-03-26T05:16:38.366Z,6.14
2017-03-26T05:17:39.787Z,6.11
2017-03-26T05:18:41.209Z,6.22
2017-03-26T05:19:42.622Z,6.07
2017-03-26T05:20:44.043Z,5.95
2017-03-26T05:21:45.464Z,6.06
2017-03-26T05:22:46.882Z,6.09
2017-03-26T05:23:48.303Z,6.25
2017-03-26T05:24:49.717Z,6.21
2017-03-26T05:25:51.146Z,6.25
2017-03-26T05:26:52.565Z,6.29
2017-03-26T05:27:53.980Z,6.33
2017-03-26T05:28:55.399Z,6.36
2017-03-26T05:29:56.819Z,6.32
2017-03-26T05:30:58.241Z,6.06
2017-03-26T05:31:59.657Z,6.30
2017-03-26T05:33:01.072Z,6.22
2017-03-26T05:34:02.497Z,6.44
2017-03-26T05:35:03.921Z,6.32
2017-03-26T05:36:05.347Z,6.25
2017-03-26T05:37:06.766Z,6.14
2017-03-26T05:38:08.186Z,6.30
2017-03-26T05:39:09.600Z,6.21
2017-03-26T05:40:11.019Z,6.18
2017-03-26T05:41:12.447Z,6.35
2017-03-26T05:42:13.861Z,6.25
2017-03-26T05:43:15.290Z,6.36
2017-03-26T05:44:16.713Z,6.22
2017-03-26T05:45:18.129Z,6.35
2017-03-26T05:46:19.549Z,6.44
2017-03-26T05:47:20.969Z,6.36
2017-03-26T05:48:22.389Z,6.35
2017-03-26T05:49:23.835Z,6.38
2017-03-26T05:50:25.268Z,6.29
2017-03-26T05:51:26.685Z,6.26
2017-03-26T05:52:28.107Z,6.32
2017-03-26T05:53:29.532Z,6.44
2017-03-26T05:54:30.982Z,6.46
2017-03-26T05:55:32.411Z,6.61
2017-03-26T05:56:33.830Z,6.50
2017-03-26T05:57:35.337Z,6.35
2017-03-26T05:58:36.754Z,6.38
2017-03-26T05:59:38.176Z,6.41
2017-03-26T06:00:39.597Z,6.43
2017-03-26T06:01:41.070Z,6.51
2017-03-26T06:02:42.488Z,6.44
2017-03-26T06:03:43.908Z,6.44
2017-03-26T06:04:45.325Z,6.36
2017-03-26T06:05:46.748Z,6.59
2017-03-26T06:06:48.166Z,6.58
2017-03-26T06:07:49.582Z,6.46
2017-03-26T06:08:51.000Z,6.38
2017-03-26T06:09:52.418Z,6.48
2017-03-26T06:10:53.848Z,6.62
2017-03-26T06:11:55.287Z,6.62
2017-03-26T06:12:56.703Z,6.48
2017-03-26T06:13:58.125Z,6.59
2017-03-26T06:14:59.552Z,6.53
2017-03-26T06:16:00.976Z,6.56
2017-03-26T06:17:02.398Z,6.43
2017-03-26T06:18:03.829Z,6.51
2017-03-26T06:19:05.245Z,6.43
2017-03-26T06:20:06.673Z,6.47
2017-03-26T06:21:08.091Z,6.46
2017-03-26T06:22:09.505Z,6.54
2017-03-26T06:23:10.922Z,6.54
2017-03-26T06:24:12.343Z,6.51
2017-03-26T06:25:13.765Z,6.61
2017-03-26T06:26:15.184Z,6.58
2017-03-26T06:27:16.616Z,6.59
2017-03-26T06:28:18.033Z,6.62
2017-03-26T06:29:19.448Z,6.61
2017-03-26T06:30:20.878Z,6.59
2017-03-26T06:31:22.299Z,6.56
2017-03-26T06:32:23.722Z,6.62
2017-03-26T06:33:25.148Z,6.61
2017-03-26T06:34:26.570Z,6.62
2017-03-26T06:35:27.994Z,6.77
2017-03-26T06:36:29.421Z,6.91
2017-03-26T06:37:30.848Z,6.95
2017-03-26T06:38:32.277Z,6.79
2017-03-26T06:39:33.696Z,6.69
2017-03-26T06:40:35.128Z,6.53
2017-03-26T06:41:36.547Z,6.56
2017-03-26T06:42:37.965Z,6.54
2017-03-26T06:43:39.384Z,6.59
2017-03-26T06:44:40.803Z,6.61
2017-03-26T06:45:42.228Z,6.66
2017-03-26T06:46:43.657Z,6.80
2017-03-26T06:47:45.077Z,6.61
2017-03-26T06:48:46.500Z,6.83
2017-03-26T06:49:47.931Z,6.94
2017-03-26T06:50:49.363Z,6.89
2017-03-26T06:51:50.841Z,6.89
2017-03-26T06:52:52.277Z,6.89
2017-03-26T06:53:53.696Z,6.91
2017-03-26T06:54:55.127Z,7.07
2017-03-26T06:55:56.559Z,7.02
2017-03-26T06:56:57.985Z,6.80
2017-03-26T06:57:59.398Z,6.83
2017-03-26T06:59:00.853Z,6.99
2017-03-26T07:00:02.289Z,7.26
2017-03-26T07:01:03.693Z,7.09
2017-03-26T07:02:05.131Z,7.08
2017-03-26T07:03:06.557Z,6.90
2017-03-26T07:04:07.976Z,7.04
2017-03-26T07:05:09.400Z,7.07
2017-03-26T07:06:10.822Z,7.04
2017-03-26T07:07:12.238Z,7.07
2017-03-26T07:08:13.661Z,7.12
2017-03-26T07:09:15.085Z,7.17
2017-03-26T07:10:16.505Z,7.15
2017-03-26T07:11:17.928Z,7.08
2017-03-26T07:12:19.356Z,7.55
2017-03-26T07:13:20.779Z,7.63
2017-03-26T07:14:22.209Z,7.40
2017-03-26T07:15:23.639Z,7.09
2017-03-26T07:16:25.068Z,7.15
2017-03-26T07:17:26.488Z,7.56
2017-03-26T07:18:27.911Z,7.49
2017-03-26T07:19:29.323Z,7.53
2017-03-26T07:20:30.748Z,7.24
2017-03-26T07:21:32.169Z,7.38
2017-03-26T07:22:33.593Z,7.58
2017-03-26T07:23:35.016Z,7.44
2017-03-26T07:24:36.434Z,7.29
2017-03-26T07:25:37.856Z,7.35
2017-03-26T07:26:39.274Z,7.63
2017-03-26T07:27:40.694Z,7.81
2017-03-26T07:28:42.114Z,7.82
2017-03-26T07:29:43.538Z,7.62
2017-03-26T07:30:44.958Z,7.58
2017-03-26T07:31:46.376Z,7.44
2017-03-26T07:32:47.794Z,7.72
2017-03-26T07:33:49.221Z,7.56
2017-03-26T07:34:50.650Z,7.41
2017-03-26T07:35:52.069Z,7.38
2017-03-26T07:36:53.493Z,7.34
2017-03-26T07:37:54.908Z,7.56
2017-03-26T07:38:56.336Z,7.47
2017-03-26T07:39:57.765Z,7.35
2017-03-26T07:40:59.189Z,7.29
2017-03-26T07:42:00.649Z,7.50
2017-03-26T07:43:02.078Z,7.53
2017-03-26T07:44:03.496Z,7.12
2017-03-26T07:45:04.919Z,7.22
2017-03-26T07:46:06.349Z,7.24
2017-03-26T07:47:07.768Z,7.20
2017-03-26T07:48:09.199Z,7.26
2017-03-26T07:49:10.628Z,7.15
2017-03-26T07:50:12.048Z,7.19
2017-03-26T07:51:13.476Z,7.22
2017-03-26T07:52:14.900Z,7.49
2017-03-26T07:53:16.322Z,7.41
2017-03-26T07:54:17.745Z,7.23
2017-03-26T07:55:19.171Z,7.17
2017-03-26T07:56:20.588Z,7.23
2017-03-26T07:57:22.010Z,7.22
2017-03-26T07:58:23.427Z,7.24
2017-03-26T07:59:24.847Z,7.26
2017-03-26T08:00:26.277Z,7.22
2017-03-26T08:01:27.699Z,7.07
2017-03-26T08:02:29.119Z,7.22
2017-03-26T08:03:30.540Z,7.24
2017-03-26T08:04:31.959Z,7.32
2017-03-26T08:05:33.391Z,7.31
2017-03-26T08:06:34.814Z,7.29
2017-03-26T08:07:36.234Z,7.17
2017-03-26T08:08:37.656Z,7.17
2017-03-26T08:09:39.081Z,7.34
2017-03-26T08:10:40.503Z,7.44
2017-03-26T08:11:41.937Z,7.29
2017-03-26T08:12:43.365Z,7.34
2017-03-26T08:13:44.787Z,7.52
2017-03-26T08:14:46.216Z,7.60
2017-03-26T08:15:47.647Z,7.69
2017-03-26T08:16:49.060Z,7.58
2017-03-26T08:17:50.487Z,7.75
2017-03-26T08:18:51.907Z,7.74
2017-03-26T08:19:53.327Z,7.79
2017-03-26T08:20:54.745Z,7.82
2017-03-26T08:21:56.165Z,7.89
2017-03-26T08:22:57.596Z,7.82
2017-03-26T08:23:59.030Z,7.62
2017-03-26T08:25:00.448Z,7.69
2017-03-26T08:26:01.868Z,7.72
2017-03-26T08:27:03.290Z,7.81
2017-03-26T08:28:04.708Z,7.75
2017-03-26T08:29:06.148Z,7.74
2017-03-26T08:30:07.566Z,8.02
2017-03-26T08:31:08.991Z,8.00
2017-03-26T08:32:10.410Z,7.97
2017-03-26T08:33:11.834Z,8.17
2017-03-26T08:34:13.261Z,8.21
2017-03-26T08:35:14.684Z,8.40
2017-03-26T08:36:16.110Z,8.47
2017-03-26T08:37:17.534Z,8.63
2017-03-26T08:38:19.022Z,8.33
2017-03-26T08:39:20.452Z,8.32
2017-03-26T08:40:21.876Z,8.28
2017-03-26T08:41:23.291Z,8.30
2017-03-26T08:42:24.731Z,8.42
2017-03-26T08:43:26.160Z,8.48
2017-03-26T08:44:27.587Z,8.50
2017-03-26T08:45:29.013Z,8.50
2017-03-26T08:46:31.557Z,8.50
2017-03-26T08:47:32.983Z,8.66
2017-03-26T08:48:34.410Z,8.65
2017-03-26T08:49:35.834Z,8.57
2017-03-26T08:50:37.269Z,8.37
2017-03-26T08:51:38.699Z,8.39
2017-03-26T08:52:40.120Z,8.51
2017-03-26T08:53:41.552Z,8.78
2017-03-26T08:54:42.969Z,8.81
2017-03-26T08:55:44.393Z,8.87
2017-03-26T08:56:45.819Z,8.69
2017-03-26T08:57:47.249Z,8.69
2017-03-26T08:58:48.677Z,8.60
2017-03-26T08:59:50.106Z,8.69
2017-03-26T09:00:51.542Z,8.66
2017-03-26T09:01:52.960Z,8.68
2017-03-26T09:02:54.385Z,8.78
2017-03-26T09:03:55.818Z,8.78
2017-03-26T09:04:57.247Z,8.79
2017-03-26T09:05:58.677Z,8.75
2017-03-26T09:07:00.106Z,8.99
2017-03-26T09:08:01.532Z,9.15
2017-03-26T09:09:02.961Z,9.21
2017-03-26T09:10:04.407Z,9.20
2017-03-26T09:11:05.831Z,9.30
2017-03-26T09:12:07.298Z,9.23
2017-03-26T09:13:08.688Z,9.12
2017-03-26T09:14:10.112Z,9.18
2017-03-26T09:15:11.534Z,9.31
2017-03-26T09:16:12.967Z,9.56
2017-03-26T09:17:14.393Z,9.73
2017-03-26T09:18:15.815Z,9.25
2017-03-26T09:19:17.240Z,9.24
2017-03-26T09:20:18.656Z,9.16
2017-03-26T09:21:20.083Z,9.31
2017-03-26T09:22:21.505Z,9.34
2017-03-26T09:23:22.932Z,9.40
2017-03-26T09:24:24.354Z,9.49
2017-03-26T09:25:25.781Z,9.25
2017-03-26T09:26:27.204Z,9.40
2017-03-26T09:27:28.627Z,9.40
2017-03-26T09:28:30.053Z,9.52
2017-03-26T09:29:31.490Z,9.66
2017-03-26T09:30:32.923Z,9.50
2017-03-26T09:31:34.350Z,9.46
2017-03-26T09:32:35.775Z,9.52
2017-03-26T09:33:37.204Z,9.81
2017-03-26T09:34:38.629Z,9.97
2017-03-26T09:35:40.065Z,10.00
2017-03-26T09:36:42.318Z,10.07
2017-03-26T09:37:43.745Z,10.22
2017-03-26T09:38:45.172Z,10.12
2017-03-26T09:39:46.599Z,9.94
2017-03-26T09:40:48.024Z,9.96
2017-03-26T09:41:49.458Z,10.04
2017-03-26T09:42:50.892Z,9.97
2017-03-26T09:43:52.310Z,10.18
2017-03-26T09:44:53.736Z,10.19
2017-03-26T09:45:55.163Z,10.12
2017-03-26T09:46:56.589Z,10.28
2017-03-26T09:47:58.012Z,10.32
2017-03-26T09:48:59.437Z,10.55
2017-03-26T09:50:00.860Z,10.56
2017-03-26T09:51:02.293Z,10.32
2017-03-26T09:52:03.735Z,10.37
2017-03-26T09:53:05.160Z,10.51
2017-03-26T09:54:06.587Z,10.55
2017-03-26T09:55:08.012Z,10.70
2017-03-26T09:56:09.440Z,10.56
2017-03-26T09:57:10.878Z,10.51
2017-03-26T09:58:12.305Z,10.63
2017-03-26T09:59:13.745Z,10.62
2017-03-26T10:00:16.674Z,10.58
2017-03-26T10:01:18.103Z,10.52
2017-03-26T10:02:19.527Z,10.53
2017-03-26T10:03:20.958Z,10.78
2017-03-26T10:04:22.380Z,10.70
2017-03-26T10:05:23.808Z,10.95
2017-03-26T10:06:25.233Z,11.10
2017-03-26T10:07:26.670Z,10.92
2017-03-26T10:08:28.095Z,11.11
2017-03-26T10:09:29.521Z,11.16
2017-03-26T10:10:30.952Z,11.14
2017-03-26T10:11:32.404Z,11.34
2017-03-26T10:12:33.829Z,11.06
2017-03-26T10:13:35.258Z,11.03
2017-03-26T10:14:36.721Z,11.07
2017-03-26T10:15:38.145Z,11.20
2017-03-26T10:16:39.579Z,11.31
2017-03-26T10:17:41.009Z,11.53
2017-03-26T10:18:42.437Z,11.59
2017-03-26T10:19:43.870Z,11.94
2017-03-26T10:20:45.345Z,11.62
2017-03-26T10:21:46.727Z,11.77
2017-03-26T10:22:48.158Z,11.71
2017-03-26T10:23:49.585Z,11.85
2017-03-26T10:24:51.021Z,11.89
2017-03-26T10:25:52.454Z,11.93
2017-03-26T10:26:53.883Z,11.86
2017-03-26T10:27:55.313Z,11.87
2017-03-26T10:28:56.741Z,11.78
2017-03-26T10:29:58.183Z,11.70
2017-03-26T10:30:59.609Z,11.71
2017-03-26T10:32:01.031Z,11.90
2017-03-26T10:33:02.452Z,11.70
2017-03-26T10:34:03.883Z,11.72
2017-03-26T10:35:05.311Z,11.93
2017-03-26T10:36:06.740Z,11.80
2017-03-26T10:37:08.169Z,11.77
2017-03-26T10:38:09.595Z,11.93
2017-03-26T10:39:11.024Z,11.90
2017-03-26T10:40:12.453Z,11.71
2017-03-26T10:41:13.883Z,11.61
2017-03-26T10:42:15.310Z,11.89
2017-03-26T10:43:16.740Z,11.72
2017-03-26T10:44:18.172Z,11.83
2017-03-26T10:45:19.599Z,12.04
2017-03-26T10:46:21.026Z,11.94
2017-03-26T10:47:22.451Z,11.94
2017-03-26T10:48:23.875Z,12.06
2017-03-26T10:49:25.301Z,11.93
2017-03-26T10:50:26.733Z,12.24
2017-03-26T10:51:28.163Z,12.29
2017-03-26T10:52:29.585Z,12.48
2017-03-26T10:53:31.006Z,12.31
2017-03-26T10:54:32.431Z,12.42
2017-03-26T10:55:33.868Z,12.52
2017-03-26T10:56:35.300Z,12.59
2017-03-26T10:57:36.729Z,12.54
2017-03-26T10:58:38.156Z,12.81
2017-03-26T10:59:39.588Z,12.78
2017-03-26T11:00:41.030Z,12.79
2017-03-26T11:01:42.456Z,12.77
2017-03-26T11:02:43.887Z,12.66
2017-03-26T11:03:45.313Z,12.75
2017-03-26T11:04:46.748Z,12.89
2017-03-26T11:05:48.187Z,12.97
2017-03-26T11:06:49.609Z,12.89
2017-03-26T11:07:51.036Z,13.12
2017-03-26T11:08:52.465Z,13.38
2017-03-26T11:09:53.888Z,13.51
2017-03-26T11:10:55.322Z,13.32
2017-03-26T11:11:56.747Z,13.33
2017-03-26T11:12:58.179Z,12.95
2017-03-26T11:13:59.611Z,13.03
2017-03-26T11:15:01.053Z,13.00
2017-03-26T11:16:02.484Z,12.89
2017-03-26T11:17:03.906Z,12.79
2017-03-26T11:18:05.337Z,12.99
2017-03-26T11:19:06.792Z,12.89
2017-03-26T11:20:08.223Z,13.04
2017-03-26T11:21:09.652Z,13.20
2017-03-26T11:22:11.084Z,13.62
2017-03-26T11:23:12.518Z,13.43
2017-03-26T11:24:13.994Z,13.32
2017-03-26T11:25:15.370Z,13.37
2017-03-26T11:26:16.887Z,13.21
2017-03-26T11:27:18.317Z,13.14
2017-03-26T11:28:19.748Z,13.52
2017-03-26T11:29:21.177Z,13.61
2017-03-26T11:30:22.709Z,13.88
2017-03-26T11:31:24.138Z,13.44
2017-03-26T11:32:25.568Z,13.15
2017-03-26T11:33:27.000Z,13.40
2017-03-26T11:34:28.429Z,13.27
2017-03-26T11:35:29.860Z,13.36
2017-03-26T11:36:31.332Z,13.52
2017-03-26T11:37:32.762Z,13.79
2017-03-26T11:38:34.206Z,13.84
2017-03-26T11:39:35.627Z,13.99
2017-03-26T11:40:37.080Z,13.92
2017-03-26T11:41:38.562Z,14.17
2017-03-26T11:42:40.003Z,14.60
2017-03-26T11:43:41.426Z,14.57
2017-03-26T11:44:42.908Z,14.72
2017-03-26T11:45:44.343Z,14.81
2017-03-26T11:46:45.771Z,14.50
2017-03-26T11:47:47.233Z,14.53
2017-03-26T11:48:48.667Z,14.65
2017-03-26T11:49:50.091Z,14.71
2017-03-26T11:50:51.525Z,14.50
2017-03-26T11:51:53.071Z,14.56
2017-03-26T11:52:54.507Z,14.65
2017-03-26T11:53:55.943Z,14.74
2017-03-26T11:54:57.371Z,14.56
2017-03-26T11:55:58.833Z,14.09
2017-03-26T11:57:00.263Z,14.24
2017-03-26T11:58:01.698Z,14.14
2017-03-26T11:59:03.133Z,14.16
2017-03-26T12:00:04.576Z,14.31
2017-03-26T12:01:06.015Z,14.72
2017-03-26T12:02:07.455Z,14.87
2017-03-26T12:03:08.889Z,14.90
2017-03-26T12:04:10.327Z,14.90
2017-03-26T12:05:11.763Z,14.65
2017-03-26T12:06:13.203Z,14.57
2017-03-26T12:07:14.675Z,14.78
2017-03-26T12:08:16.101Z,15.41
2017-03-26T12:09:17.527Z,15.36
2017-03-26T12:10:19.022Z,15.20
2017-03-26T12:11:20.452Z,15.35
2017-03-26T12:12:21.883Z,14.84
2017-03-26T12:13:23.312Z,15.45
2017-03-26T12:14:24.815Z,14.93
2017-03-26T12:15:26.245Z,14.86
2017-03-26T12:16:27.683Z,14.57
2017-03-26T12:17:29.118Z,14.60
2017-03-26T12:18:30.561Z,14.42
2017-03-26T12:19:31.995Z,14.43
2017-03-26T12:20:33.435Z,14.47
2017-03-26T12:21:34.877Z,14.87
2017-03-26T12:22:36.312Z,14.60
2017-03-26T12:23:37.750Z,14.62
2017-03-26T12:24:39.216Z,14.99
2017-03-26T12:25:40.648Z,15.05
2017-03-26T12:26:42.077Z,14.80
2017-03-26T12:27:43.510Z,14.94
2017-03-26T12:28:44.986Z,14.56
2017-03-26T12:29:46.421Z,14.72
2017-03-26T12:30:47.852Z,14.87
2017-03-26T12:31:49.288Z,14.90
2017-03-26T12:32:50.724Z,15.24
2017-03-26T12:33:52.152Z,15.20
2017-03-26T12:34:53.581Z,15.27
2017-03-26T12:35:55.080Z,15.24
2017-03-26T12:36:56.517Z,15.33
2017-03-26T12:37:57.945Z,15.64
2017-03-26T12:38:59.385Z,15.66
2017-03-26T12:40:00.861Z,15.33
2017-03-26T12:41:02.301Z,15.57
2017-03-26T12:42:03.734Z,15.72
2017-03-26T12:43:05.172Z,15.81
2017-03-26T12:44:06.610Z,16.18
2017-03-26T12:45:08.043Z,16.26
2017-03-26T12:46:09.473Z,16.22
2017-03-26T12:47:10.907Z,16.22
2017-03-26T12:48:12.337Z,16.65
2017-03-26T12:49:13.764Z,16.63
2017-03-26T12:50:15.265Z,15.96
2017-03-26T12:51:16.739Z,15.86
2017-03-26T12:52:18.177Z,16.00
2017-03-26T12:53:19.612Z,15.68
2017-03-26T12:54:21.054Z,15.51
2017-03-26T12:55:22.527Z,15.38
2017-03-26T12:56:23.963Z,15.54
2017-03-26T12:57:25.402Z,15.79
2017-03-26T12:58:26.846Z,15.48
2017-03-26T12:59:28.276Z,15.64
2017-03-26T13:00:29.709Z,16.25
2017-03-26T13:01:31.231Z,16.20
2017-03-26T13:02:32.681Z,15.97
2017-03-26T13:03:34.111Z,15.99
2017-03-26T13:04:35.549Z,16.12
2017-03-26T13:05:36.982Z,16.27
2017-03-26T13:06:38.418Z,16.48
2017-03-26T13:07:39.852Z,16.52
2017-03-26T13:08:41.291Z,16.49
2017-03-26T13:09:42.719Z,16.58
2017-03-26T13:10:44.159Z,16.63
2017-03-26T13:11:45.599Z,16.80
2017-03-26T13:12:47.042Z,16.49
2017-03-26T13:13:48.472Z,16.45
2017-03-26T13:14:49.908Z,16.73
2017-03-26T13:15:51.335Z,17.40
2017-03-26T13:16:52.797Z,17.29
2017-03-26T13:17:54.234Z,17.64
2017-03-26T13:18:55.663Z,19.28
2017-03-26T13:19:57.099Z,22.16
2017-03-26T13:20:58.585Z,23.77
2017-03-26T13:22:00.013Z,23.85
2017-03-26T13:23:01.446Z,26.86
2017-03-26T13:24:02.880Z,26.74
2017-03-26T13:25:04.316Z,25.06
2017-03-26T13:26:05.762Z,25.86
2017-03-26T13:27:07.194Z,27.47
2017-03-26T13:28:08.748Z,24.76
2017-03-26T13:29:10.197Z,25.79
2017-03-26T13:30:12.515Z,24.75